sensor_id;sensor_type;location;lat;lon;timestamp;temperature;humidity
74657;DHT22;63185;45.642;13.764;2023-05-07T00:00:09;20.40;58.00
74657;DHT22;63185;45.642;13.764;2023-05-07T00:02:35;20.40;58.10
74657;DHT22;63185;45.642;13.764;2023-05-07T00:05:01;20.30;58.30
74657;DHT22;63185;45.642;13.764;2023-05-07T00:07:28;20.30;58.60
74657;DHT22;63185;45.642;13.764;2023-05-07T00:09:53;20.30;58.20
74657;DHT22;63185;45.642;13.764;2023-05-07T00:12:19;20.30;58.20
74657;DHT22;63185;45.642;13.764;2023-05-07T00:14:45;20.30;58.10
74657;DHT22;63185;45.642;13.764;2023-05-07T00:17:11;20.20;58.00
74657;DHT22;63185;45.642;13.764;2023-05-07T00:19:37;20.20;58.00
74657;DHT22;63185;45.642;13.764;2023-05-07T00:22:02;20.10;58.10
74657;DHT22;63185;45.642;13.764;2023-05-07T00:24:28;20.10;58.20
74657;DHT22;63185;45.642;13.764;2023-05-07T00:26:54;20.10;58.20
74657;DHT22;63185;45.642;13.764;2023-05-07T00:29:20;20.10;58.70
74657;DHT22;63185;45.642;13.764;2023-05-07T00:31:45;20.00;58.90
74657;DHT22;63185;45.642;13.764;2023-05-07T00:34:11;20.00;59.30
74657;DHT22;63185;45.642;13.764;2023-05-07T00:36:36;19.90;59.40
74657;DHT22;63185;45.642;13.764;2023-05-07T00:39:02;19.90;59.30
74657;DHT22;63185;45.642;13.764;2023-05-07T00:41:29;19.80;59.50
74657;DHT22;63185;45.642;13.764;2023-05-07T00:43:56;19.80;59.60
74657;DHT22;63185;45.642;13.764;2023-05-07T00:46:23;19.80;59.70
74657;DHT22;63185;45.642;13.764;2023-05-07T00:48:50;19.70;60.00
74657;DHT22;63185;45.642;13.764;2023-05-07T00:51:17;19.70;59.80
74657;DHT22;63185;45.642;13.764;2023-05-07T00:53:43;19.70;59.90
74657;DHT22;63185;45.642;13.764;2023-05-07T00:56:09;19.70;59.80
74657;DHT22;63185;45.642;13.764;2023-05-07T00:58:35;19.60;60.10
74657;DHT22;63185;45.642;13.764;2023-05-07T01:01:02;19.60;60.10
74657;DHT22;63185;45.642;13.764;2023-05-07T01:03:27;19.60;60.50
74657;DHT22;63185;45.642;13.764;2023-05-07T01:05:54;19.60;60.70
74657;DHT22;63185;45.642;13.764;2023-05-07T01:08:23;19.60;61.10
74657;DHT22;63185;45.642;13.764;2023-05-07T01:10:51;19.50;60.90
74657;DHT22;63185;45.642;13.764;2023-05-07T01:13:17;19.50;60.60
74657;DHT22;63185;45.642;13.764;2023-05-07T01:15:43;19.50;60.30
74657;DHT22;63185;45.642;13.764;2023-05-07T01:18:09;19.50;60.20
74657;DHT22;63185;45.642;13.764;2023-05-07T01:20:35;19.50;59.60
74657;DHT22;63185;45.642;13.764;2023-05-07T01:23:01;19.50;59.50
74657;DHT22;63185;45.642;13.764;2023-05-07T01:25:28;19.50;59.50
74657;DHT22;63185;45.642;13.764;2023-05-07T01:27:54;19.50;59.50
74657;DHT22;63185;45.642;13.764;2023-05-07T01:30:20;19.50;59.60
74657;DHT22;63185;45.642;13.764;2023-05-07T01:33:01;19.50;59.70
74657;DHT22;63185;45.642;13.764;2023-05-07T01:35:34;19.50;59.70
74657;DHT22;63185;45.642;13.764;2023-05-07T01:38:02;19.40;59.50
74657;DHT22;63185;45.642;13.764;2023-05-07T01:40:30;19.40;59.40
74657;DHT22;63185;45.642;13.764;2023-05-07T01:42:55;19.40;59.40
74657;DHT22;63185;45.642;13.764;2023-05-07T01:45:22;19.40;59.30
74657;DHT22;63185;45.642;13.764;2023-05-07T01:47:49;19.40;59.00
74657;DHT22;63185;45.642;13.764;2023-05-07T01:50:16;19.30;58.90
74657;DHT22;63185;45.642;13.764;2023-05-07T01:52:43;19.30;59.00
74657;DHT22;63185;45.642;13.764;2023-05-07T01:55:09;19.30;59.50
74657;DHT22;63185;45.642;13.764;2023-05-07T01:57:35;19.30;59.40
74657;DHT22;63185;45.642;13.764;2023-05-07T02:00:01;19.30;59.20
74657;DHT22;63185;45.642;13.764;2023-05-07T02:02:28;19.30;59.00
74657;DHT22;63185;45.642;13.764;2023-05-07T02:04:54;19.30;58.90
74657;DHT22;63185;45.642;13.764;2023-05-07T02:07:19;19.30;58.80
74657;DHT22;63185;45.642;13.764;2023-05-07T02:09:45;19.30;58.70
74657;DHT22;63185;45.642;13.764;2023-05-07T02:12:11;19.30;58.60
74657;DHT22;63185;45.642;13.764;2023-05-07T02:14:37;19.30;58.40
74657;DHT22;63185;45.642;13.764;2023-05-07T02:17:02;19.40;58.00
74657;DHT22;63185;45.642;13.764;2023-05-07T02:19:28;19.40;57.90
74657;DHT22;63185;45.642;13.764;2023-05-07T02:21:54;19.50;57.80
74657;DHT22;63185;45.642;13.764;2023-05-07T02:24:19;19.50;57.80
74657;DHT22;63185;45.642;13.764;2023-05-07T02:26:45;19.50;57.60
74657;DHT22;63185;45.642;13.764;2023-05-07T02:29:11;19.50;57.80
74657;DHT22;63185;45.642;13.764;2023-05-07T02:31:36;19.50;57.60
74657;DHT22;63185;45.642;13.764;2023-05-07T02:34:02;19.50;57.90
74657;DHT22;63185;45.642;13.764;2023-05-07T02:36:29;19.60;57.80
74657;DHT22;63185;45.642;13.764;2023-05-07T02:38:55;19.60;57.90
74657;DHT22;63185;45.642;13.764;2023-05-07T02:41:20;19.50;58.20
74657;DHT22;63185;45.642;13.764;2023-05-07T02:43:46;19.50;58.10
74657;DHT22;63185;45.642;13.764;2023-05-07T02:46:12;19.50;58.60
74657;DHT22;63185;45.642;13.764;2023-05-07T02:48:37;19.40;58.80
74657;DHT22;63185;45.642;13.764;2023-05-07T02:51:04;19.40;59.20
74657;DHT22;63185;45.642;13.764;2023-05-07T02:53:30;19.30;58.80
74657;DHT22;63185;45.642;13.764;2023-05-07T02:55:57;19.30;58.90
74657;DHT22;63185;45.642;13.764;2023-05-07T02:58:23;19.30;59.30
74657;DHT22;63185;45.642;13.764;2023-05-07T03:00:49;19.20;59.70
74657;DHT22;63185;45.642;13.764;2023-05-07T03:03:15;19.20;60.50
74657;DHT22;63185;45.642;13.764;2023-05-07T03:05:41;19.10;60.80
74657;DHT22;63185;45.642;13.764;2023-05-07T03:08:08;19.10;61.10
74657;DHT22;63185;45.642;13.764;2023-05-07T03:10:35;19.00;61.10
74657;DHT22;63185;45.642;13.764;2023-05-07T03:13:01;19.00;61.10
74657;DHT22;63185;45.642;13.764;2023-05-07T03:15:27;18.90;61.30
74657;DHT22;63185;45.642;13.764;2023-05-07T03:17:52;18.90;61.50
74657;DHT22;63185;45.642;13.764;2023-05-07T03:20:18;18.90;61.70
74657;DHT22;63185;45.642;13.764;2023-05-07T03:22:44;18.90;61.60
74657;DHT22;63185;45.642;13.764;2023-05-07T03:25:10;18.90;61.20
74657;DHT22;63185;45.642;13.764;2023-05-07T03:27:36;18.80;61.00
74657;DHT22;63185;45.642;13.764;2023-05-07T03:30:02;18.90;61.40
74657;DHT22;63185;45.642;13.764;2023-05-07T03:32:28;18.90;61.20
74657;DHT22;63185;45.642;13.764;2023-05-07T03:34:54;18.90;61.00
74657;DHT22;63185;45.642;13.764;2023-05-07T03:37:21;18.90;61.00
74657;DHT22;63185;45.642;13.764;2023-05-07T03:39:47;18.90;60.80
74657;DHT22;63185;45.642;13.764;2023-05-07T03:42:14;18.90;60.50
74657;DHT22;63185;45.642;13.764;2023-05-07T03:44:40;19.00;59.80
74657;DHT22;63185;45.642;13.764;2023-05-07T03:47:06;19.10;59.30
74657;DHT22;63185;45.642;13.764;2023-05-07T03:49:32;19.10;59.10
74657;DHT22;63185;45.642;13.764;2023-05-07T03:51:57;19.10;59.50
74657;DHT22;63185;45.642;13.764;2023-05-07T03:54:23;19.20;59.10
74657;DHT22;63185;45.642;13.764;2023-05-07T03:56:49;19.20;59.10
74657;DHT22;63185;45.642;13.764;2023-05-07T03:59:14;19.20;59.20
74657;DHT22;63185;45.642;13.764;2023-05-07T04:01:40;19.20;59.20
74657;DHT22;63185;45.642;13.764;2023-05-07T04:04:06;19.20;59.20
74657;DHT22;63185;45.642;13.764;2023-05-07T04:06:31;19.20;58.70
74657;DHT22;63185;45.642;13.764;2023-05-07T04:08:57;19.30;58.40
74657;DHT22;63185;45.642;13.764;2023-05-07T04:11:23;19.30;58.30
74657;DHT22;63185;45.642;13.764;2023-05-07T04:13:49;19.40;57.60
74657;DHT22;63185;45.642;13.764;2023-05-07T04:16:15;19.40;57.60
74657;DHT22;63185;45.642;13.764;2023-05-07T04:18:41;19.50;57.40
74657;DHT22;63185;45.642;13.764;2023-05-07T04:21:14;19.50;57.90
74657;DHT22;63185;45.642;13.764;2023-05-07T04:23:40;19.50;57.80
74657;DHT22;63185;45.642;13.764;2023-05-07T04:26:06;19.50;58.00
74657;DHT22;63185;45.642;13.764;2023-05-07T04:28:32;19.60;58.00
74657;DHT22;63185;45.642;13.764;2023-05-07T04:30:58;19.60;58.30
74657;DHT22;63185;45.642;13.764;2023-05-07T04:33:23;19.60;58.60
74657;DHT22;63185;45.642;13.764;2023-05-07T04:35:49;19.60;57.60
74657;DHT22;63185;45.642;13.764;2023-05-07T04:38:15;19.60;57.50
74657;DHT22;63185;45.642;13.764;2023-05-07T04:40:42;19.70;57.60
74657;DHT22;63185;45.642;13.764;2023-05-07T04:43:07;19.70;57.70
74657;DHT22;63185;45.642;13.764;2023-05-07T04:45:35;19.70;57.60
74657;DHT22;63185;45.642;13.764;2023-05-07T04:48:00;19.80;56.90
74657;DHT22;63185;45.642;13.764;2023-05-07T04:50:26;19.90;57.40
74657;DHT22;63185;45.642;13.764;2023-05-07T04:52:52;20.00;56.40
74657;DHT22;63185;45.642;13.764;2023-05-07T04:55:18;20.10;55.90
74657;DHT22;63185;45.642;13.764;2023-05-07T04:57:44;20.10;56.00
74657;DHT22;63185;45.642;13.764;2023-05-07T05:00:11;20.10;55.30
74657;DHT22;63185;45.642;13.764;2023-05-07T05:02:40;20.20;55.40
74657;DHT22;63185;45.642;13.764;2023-05-07T05:05:06;20.20;55.80
74657;DHT22;63185;45.642;13.764;2023-05-07T05:07:32;20.20;56.30
74657;DHT22;63185;45.642;13.764;2023-05-07T05:09:58;20.20;56.50
74657;DHT22;63185;45.642;13.764;2023-05-07T05:12:24;20.10;56.40
74657;DHT22;63185;45.642;13.764;2023-05-07T05:14:50;20.10;56.80
74657;DHT22;63185;45.642;13.764;2023-05-07T05:17:16;20.10;57.00
74657;DHT22;63185;45.642;13.764;2023-05-07T05:19:42;20.10;57.10
74657;DHT22;63185;45.642;13.764;2023-05-07T05:22:07;20.10;57.30
74657;DHT22;63185;45.642;13.764;2023-05-07T05:24:33;20.10;57.10
74657;DHT22;63185;45.642;13.764;2023-05-07T05:26:59;20.10;57.60
74657;DHT22;63185;45.642;13.764;2023-05-07T05:29:27;20.10;57.60
74657;DHT22;63185;45.642;13.764;2023-05-07T05:31:53;20.00;57.50
74657;DHT22;63185;45.642;13.764;2023-05-07T05:34:18;20.00;58.20
74657;DHT22;63185;45.642;13.764;2023-05-07T05:36:47;20.10;58.40
74657;DHT22;63185;45.642;13.764;2023-05-07T05:39:13;20.20;57.90
74657;DHT22;63185;45.642;13.764;2023-05-07T05:41:39;20.30;57.90
74657;DHT22;63185;45.642;13.764;2023-05-07T05:44:05;20.30;57.90
74657;DHT22;63185;45.642;13.764;2023-05-07T05:46:31;20.30;57.60
74657;DHT22;63185;45.642;13.764;2023-05-07T05:48:57;20.50;57.40
74657;DHT22;63185;45.642;13.764;2023-05-07T05:51:22;20.60;57.50
74657;DHT22;63185;45.642;13.764;2023-05-07T05:53:48;20.70;56.80
74657;DHT22;63185;45.642;13.764;2023-05-07T05:56:15;20.80;56.70
74657;DHT22;63185;45.642;13.764;2023-05-07T05:58:41;20.90;56.90
74657;DHT22;63185;45.642;13.764;2023-05-07T06:01:07;20.90;57.60
74657;DHT22;63185;45.642;13.764;2023-05-07T06:03:32;21.10;57.60
74657;DHT22;63185;45.642;13.764;2023-05-07T06:05:58;21.10;57.80
74657;DHT22;63185;45.642;13.764;2023-05-07T06:08:25;21.10;57.70
74657;DHT22;63185;45.642;13.764;2023-05-07T06:10:51;21.10;57.80
74657;DHT22;63185;45.642;13.764;2023-05-07T06:13:17;21.10;57.10
74657;DHT22;63185;45.642;13.764;2023-05-07T06:15:44;21.30;56.50
74657;DHT22;63185;45.642;13.764;2023-05-07T06:18:10;21.50;56.00
74657;DHT22;63185;45.642;13.764;2023-05-07T06:20:35;21.50;56.30
74657;DHT22;63185;45.642;13.764;2023-05-07T06:23:01;21.40;56.00
74657;DHT22;63185;45.642;13.764;2023-05-07T06:25:27;21.30;56.20
74657;DHT22;63185;45.642;13.764;2023-05-07T06:27:53;21.20;57.10
74657;DHT22;63185;45.642;13.764;2023-05-07T06:30:18;21.10;56.40
74657;DHT22;63185;45.642;13.764;2023-05-07T06:32:44;21.00;56.60
74657;DHT22;63185;45.642;13.764;2023-05-07T06:35:10;20.80;56.60
74657;DHT22;63185;45.642;13.764;2023-05-07T06:37:36;20.70;57.20
74657;DHT22;63185;45.642;13.764;2023-05-07T06:40:07;20.90;57.40
74657;DHT22;63185;45.642;13.764;2023-05-07T06:42:33;20.70;58.20
74657;DHT22;63185;45.642;13.764;2023-05-07T06:44:58;20.80;58.30
74657;DHT22;63185;45.642;13.764;2023-05-07T06:47:24;20.70;58.10
74657;DHT22;63185;45.642;13.764;2023-05-07T06:49:50;20.80;57.90
74657;DHT22;63185;45.642;13.764;2023-05-07T06:52:15;21.00;57.60
74657;DHT22;63185;45.642;13.764;2023-05-07T06:54:41;21.20;57.10
74657;DHT22;63185;45.642;13.764;2023-05-07T06:57:07;21.20;57.40
74657;DHT22;63185;45.642;13.764;2023-05-07T06:59:32;21.30;57.00
74657;DHT22;63185;45.642;13.764;2023-05-07T07:01:58;21.50;56.70
74657;DHT22;63185;45.642;13.764;2023-05-07T07:04:24;21.50;56.70
74657;DHT22;63185;45.642;13.764;2023-05-07T07:06:52;21.70;56.30
74657;DHT22;63185;45.642;13.764;2023-05-07T07:09:18;21.80;55.00
74657;DHT22;63185;45.642;13.764;2023-05-07T07:11:43;21.90;55.20
74657;DHT22;63185;45.642;13.764;2023-05-07T07:14:09;22.00;55.20
74657;DHT22;63185;45.642;13.764;2023-05-07T07:16:35;21.90;55.60
74657;DHT22;63185;45.642;13.764;2023-05-07T07:19:00;21.90;56.20
74657;DHT22;63185;45.642;13.764;2023-05-07T07:21:26;22.00;56.50
74657;DHT22;63185;45.642;13.764;2023-05-07T07:23:52;21.90;57.00
74657;DHT22;63185;45.642;13.764;2023-05-07T07:26:18;21.90;57.40
74657;DHT22;63185;45.642;13.764;2023-05-07T07:28:45;21.60;58.40
74657;DHT22;63185;45.642;13.764;2023-05-07T07:31:11;21.70;58.20
74657;DHT22;63185;45.642;13.764;2023-05-07T07:33:37;21.70;57.70
74657;DHT22;63185;45.642;13.764;2023-05-07T07:36:04;21.80;57.90
74657;DHT22;63185;45.642;13.764;2023-05-07T07:38:30;21.80;58.00
74657;DHT22;63185;45.642;13.764;2023-05-07T07:40:56;21.60;58.40
74657;DHT22;63185;45.642;13.764;2023-05-07T07:43:21;21.70;58.20
74657;DHT22;63185;45.642;13.764;2023-05-07T07:45:47;21.70;58.90
74657;DHT22;63185;45.642;13.764;2023-05-07T07:48:13;21.80;58.10
74657;DHT22;63185;45.642;13.764;2023-05-07T07:50:38;21.80;56.70
74657;DHT22;63185;45.642;13.764;2023-05-07T07:53:04;21.80;57.00
74657;DHT22;63185;45.642;13.764;2023-05-07T07:55:30;21.80;57.00
74657;DHT22;63185;45.642;13.764;2023-05-07T07:57:57;21.90;56.90
74657;DHT22;63185;45.642;13.764;2023-05-07T08:00:23;21.80;57.50
74657;DHT22;63185;45.642;13.764;2023-05-07T08:02:49;21.70;57.60
74657;DHT22;63185;45.642;13.764;2023-05-07T08:05:19;22.10;57.30
74657;DHT22;63185;45.642;13.764;2023-05-07T08:07:48;22.20;56.90
74657;DHT22;63185;45.642;13.764;2023-05-07T08:10:26;22.20;57.10
74657;DHT22;63185;45.642;13.764;2023-05-07T08:12:54;22.30;55.80
74657;DHT22;63185;45.642;13.764;2023-05-07T08:15:20;22.10;56.20
74657;DHT22;63185;45.642;13.764;2023-05-07T08:17:46;21.90;57.30
74657;DHT22;63185;45.642;13.764;2023-05-07T08:20:11;22.00;56.50
74657;DHT22;63185;45.642;13.764;2023-05-07T08:22:37;22.00;56.00
74657;DHT22;63185;45.642;13.764;2023-05-07T08:25:03;21.90;56.90
74657;DHT22;63185;45.642;13.764;2023-05-07T08:27:29;21.90;57.70
74657;DHT22;63185;45.642;13.764;2023-05-07T08:29:54;21.80;57.40
74657;DHT22;63185;45.642;13.764;2023-05-07T08:32:21;21.60;57.40
74657;DHT22;63185;45.642;13.764;2023-05-07T08:34:47;21.60;57.90
74657;DHT22;63185;45.642;13.764;2023-05-07T08:37:13;21.70;57.00
74657;DHT22;63185;45.642;13.764;2023-05-07T08:39:39;21.90;56.80
74657;DHT22;63185;45.642;13.764;2023-05-07T08:42:11;21.90;56.70
74657;DHT22;63185;45.642;13.764;2023-05-07T08:44:41;21.90;55.80
74657;DHT22;63185;45.642;13.764;2023-05-07T08:47:11;21.60;56.10
74657;DHT22;63185;45.642;13.764;2023-05-07T08:49:37;21.70;58.30
74657;DHT22;63185;45.642;13.764;2023-05-07T08:52:02;21.70;59.00
74657;DHT22;63185;45.642;13.764;2023-05-07T08:54:29;21.70;58.50
74657;DHT22;63185;45.642;13.764;2023-05-07T08:56:56;21.80;56.20
74657;DHT22;63185;45.642;13.764;2023-05-07T08:59:21;21.80;57.50
74657;DHT22;63185;45.642;13.764;2023-05-07T09:01:47;21.80;58.20
74657;DHT22;63185;45.642;13.764;2023-05-07T09:04:13;21.90;57.50
74657;DHT22;63185;45.642;13.764;2023-05-07T09:06:39;21.70;58.20
74657;DHT22;63185;45.642;13.764;2023-05-07T09:09:07;21.80;57.50
74657;DHT22;63185;45.642;13.764;2023-05-07T09:11:33;21.90;58.20
74657;DHT22;63185;45.642;13.764;2023-05-07T09:13:59;21.80;58.60
74657;DHT22;63185;45.642;13.764;2023-05-07T09:16:29;21.90;59.40
74657;DHT22;63185;45.642;13.764;2023-05-07T09:18:59;22.10;59.80
74657;DHT22;63185;45.642;13.764;2023-05-07T09:21:25;22.00;58.90
74657;DHT22;63185;45.642;13.764;2023-05-07T09:23:54;21.90;61.00
74657;DHT22;63185;45.642;13.764;2023-05-07T09:26:24;22.00;61.00
74657;DHT22;63185;45.642;13.764;2023-05-07T09:28:50;22.10;61.30
74657;DHT22;63185;45.642;13.764;2023-05-07T09:31:16;22.00;61.10
74657;DHT22;63185;45.642;13.764;2023-05-07T09:33:42;22.10;62.80
74657;DHT22;63185;45.642;13.764;2023-05-07T09:36:09;21.90;62.10
74657;DHT22;63185;45.642;13.764;2023-05-07T09:38:36;22.10;62.50
74657;DHT22;63185;45.642;13.764;2023-05-07T09:43:35;21.90;59.30
74657;DHT22;63185;45.642;13.764;2023-05-07T09:46:07;21.80;60.80
74657;DHT22;63185;45.642;13.764;2023-05-07T09:48:38;22.00;60.10
74657;DHT22;63185;45.642;13.764;2023-05-07T09:51:36;21.90;60.00
74657;DHT22;63185;45.642;13.764;2023-05-07T09:53:57;22.00;58.00
74657;DHT22;63185;45.642;13.764;2023-05-07T09:56:25;22.10;60.50
74657;DHT22;63185;45.642;13.764;2023-05-07T09:58:54;22.20;59.80
74657;DHT22;63185;45.642;13.764;2023-05-07T10:01:21;22.30;58.30
74657;DHT22;63185;45.642;13.764;2023-05-07T10:03:48;22.50;59.10
74657;DHT22;63185;45.642;13.764;2023-05-07T10:06:15;22.50;57.80
74657;DHT22;63185;45.642;13.764;2023-05-07T10:08:43;22.30;58.70
74657;DHT22;63185;45.642;13.764;2023-05-07T10:11:09;22.40;58.10
74657;DHT22;63185;45.642;13.764;2023-05-07T10:13:39;22.20;58.00
74657;DHT22;63185;45.642;13.764;2023-05-07T10:16:05;22.30;57.70
74657;DHT22;63185;45.642;13.764;2023-05-07T10:18:31;22.50;56.30
74657;DHT22;63185;45.642;13.764;2023-05-07T10:21:08;22.50;52.20
74657;DHT22;63185;45.642;13.764;2023-05-07T10:23:37;22.70;54.70
74657;DHT22;63185;45.642;13.764;2023-05-07T10:26:06;22.70;55.80
74657;DHT22;63185;45.642;13.764;2023-05-07T10:28:37;22.80;56.00
74657;DHT22;63185;45.642;13.764;2023-05-07T10:33:52;23.00;57.00
74657;DHT22;63185;45.642;13.764;2023-05-07T10:36:19;23.00;55.60
74657;DHT22;63185;45.642;13.764;2023-05-07T10:38:47;23.00;54.40
74657;DHT22;63185;45.642;13.764;2023-05-07T10:41:13;23.00;53.50
74657;DHT22;63185;45.642;13.764;2023-05-07T10:43:40;22.90;53.30
74657;DHT22;63185;45.642;13.764;2023-05-07T10:46:18;23.20;52.90
74657;DHT22;63185;45.642;13.764;2023-05-07T10:51:34;23.30;53.00
74657;DHT22;63185;45.642;13.764;2023-05-07T10:56:36;23.40;51.30
74657;DHT22;63185;45.642;13.764;2023-05-07T11:01:50;23.20;52.20
74657;DHT22;63185;45.642;13.764;2023-05-07T11:04:17;23.20;52.70
74657;DHT22;63185;45.642;13.764;2023-05-07T11:15:07;23.70;49.10
74657;DHT22;63185;45.642;13.764;2023-05-07T11:17:34;23.40;47.60
74657;DHT22;63185;45.642;13.764;2023-05-07T11:20:01;23.60;48.20
74657;DHT22;63185;45.642;13.764;2023-05-07T11:25:00;24.00;48.60
74657;DHT22;63185;45.642;13.764;2023-05-07T11:27:26;24.30;48.10
74657;DHT22;63185;45.642;13.764;2023-05-07T11:29:52;24.50;47.50
74657;DHT22;63185;45.642;13.764;2023-05-07T11:32:27;24.60;45.80
74657;DHT22;63185;45.642;13.764;2023-05-07T11:34:54;24.50;47.50
74657;DHT22;63185;45.642;13.764;2023-05-07T11:37:21;24.40;47.30
74657;DHT22;63185;45.642;13.764;2023-05-07T11:39:47;24.30;46.00
74657;DHT22;63185;45.642;13.764;2023-05-07T11:42:34;24.20;46.60
74657;DHT22;63185;45.642;13.764;2023-05-07T11:45:00;24.30;46.00
74657;DHT22;63185;45.642;13.764;2023-05-07T11:47:30;24.50;46.50
74657;DHT22;63185;45.642;13.764;2023-05-07T11:49:55;24.70;46.00
74657;DHT22;63185;45.642;13.764;2023-05-07T11:52:22;24.70;46.20
74657;DHT22;63185;45.642;13.764;2023-05-07T11:54:53;24.60;47.90
74657;DHT22;63185;45.642;13.764;2023-05-07T11:57:20;24.60;46.50
74657;DHT22;63185;45.642;13.764;2023-05-07T11:59:46;24.80;46.60
74657;DHT22;63185;45.642;13.764;2023-05-07T12:02:17;25.10;46.40
74657;DHT22;63185;45.642;13.764;2023-05-07T12:04:43;25.30;45.70
74657;DHT22;63185;45.642;13.764;2023-05-07T12:07:13;24.80;44.70
74657;DHT22;63185;45.642;13.764;2023-05-07T12:09:40;24.50;47.40
74657;DHT22;63185;45.642;13.764;2023-05-07T12:12:06;24.80;47.30
74657;DHT22;63185;45.642;13.764;2023-05-07T12:14:32;25.10;46.20
74657;DHT22;63185;45.642;13.764;2023-05-07T12:16:59;24.80;46.40
74657;DHT22;63185;45.642;13.764;2023-05-07T12:19:29;24.60;47.00
74657;DHT22;63185;45.642;13.764;2023-05-07T12:21:56;24.70;47.20
74657;DHT22;63185;45.642;13.764;2023-05-07T12:24:22;24.70;47.90
74657;DHT22;63185;45.642;13.764;2023-05-07T12:26:48;24.60;44.90
74657;DHT22;63185;45.642;13.764;2023-05-07T12:29:14;24.60;47.00
74657;DHT22;63185;45.642;13.764;2023-05-07T12:31:43;24.50;45.40
74657;DHT22;63185;45.642;13.764;2023-05-07T12:34:11;24.40;49.20
74657;DHT22;63185;45.642;13.764;2023-05-07T12:36:40;24.90;49.00
74657;DHT22;63185;45.642;13.764;2023-05-07T12:39:09;25.00;46.20
74657;DHT22;63185;45.642;13.764;2023-05-07T12:41:58;24.90;43.50
74657;DHT22;63185;45.642;13.764;2023-05-07T12:44:33;24.90;48.10
74657;DHT22;63185;45.642;13.764;2023-05-07T12:47:02;25.10;45.30
74657;DHT22;63185;45.642;13.764;2023-05-07T12:49:28;25.10;45.70
74657;DHT22;63185;45.642;13.764;2023-05-07T12:51:54;24.90;45.70
74657;DHT22;63185;45.642;13.764;2023-05-07T12:54:34;24.70;46.80
74657;DHT22;63185;45.642;13.764;2023-05-07T12:57:05;24.90;46.80
74657;DHT22;63185;45.642;13.764;2023-05-07T12:59:35;25.00;47.60
74657;DHT22;63185;45.642;13.764;2023-05-07T13:02:01;24.80;47.80
74657;DHT22;63185;45.642;13.764;2023-05-07T13:04:27;24.60;47.40
74657;DHT22;63185;45.642;13.764;2023-05-07T13:06:52;24.80;49.00
74657;DHT22;63185;45.642;13.764;2023-05-07T13:09:18;24.90;49.10
74657;DHT22;63185;45.642;13.764;2023-05-07T13:11:43;24.90;48.40
74657;DHT22;63185;45.642;13.764;2023-05-07T13:14:09;24.80;48.50
74657;DHT22;63185;45.642;13.764;2023-05-07T13:16:35;24.40;49.90
74657;DHT22;63185;45.642;13.764;2023-05-07T13:19:01;24.50;51.90
74657;DHT22;63185;45.642;13.764;2023-05-07T13:21:26;24.30;49.60
74657;DHT22;63185;45.642;13.764;2023-05-07T13:23:52;24.10;51.40
74657;DHT22;63185;45.642;13.764;2023-05-07T13:26:18;24.00;50.70
74657;DHT22;63185;45.642;13.764;2023-05-07T13:28:44;23.80;50.80
74657;DHT22;63185;45.642;13.764;2023-05-07T13:31:09;23.90;51.10
74657;DHT22;63185;45.642;13.764;2023-05-07T13:33:35;24.00;50.90
74657;DHT22;63185;45.642;13.764;2023-05-07T13:36:01;23.90;52.20
74657;DHT22;63185;45.642;13.764;2023-05-07T13:38:29;24.00;51.90
74657;DHT22;63185;45.642;13.764;2023-05-07T13:40:55;24.00;52.50
74657;DHT22;63185;45.642;13.764;2023-05-07T13:43:21;23.90;52.90
74657;DHT22;63185;45.642;13.764;2023-05-07T13:45:46;23.80;54.20
74657;DHT22;63185;45.642;13.764;2023-05-07T13:48:12;23.80;53.50
74657;DHT22;63185;45.642;13.764;2023-05-07T13:50:38;23.70;54.10
74657;DHT22;63185;45.642;13.764;2023-05-07T13:53:03;23.70;53.80
74657;DHT22;63185;45.642;13.764;2023-05-07T13:55:30;23.90;54.80
74657;DHT22;63185;45.642;13.764;2023-05-07T13:57:57;24.10;54.20
74657;DHT22;63185;45.642;13.764;2023-05-07T14:00:24;24.20;52.60
74657;DHT22;63185;45.642;13.764;2023-05-07T14:02:50;24.10;53.20
74657;DHT22;63185;45.642;13.764;2023-05-07T14:05:16;24.30;54.20
74657;DHT22;63185;45.642;13.764;2023-05-07T14:07:42;24.50;53.80
74657;DHT22;63185;45.642;13.764;2023-05-07T14:10:08;24.60;53.20
74657;DHT22;63185;45.642;13.764;2023-05-07T14:12:34;24.80;51.10
74657;DHT22;63185;45.642;13.764;2023-05-07T14:15:00;25.00;50.20
74657;DHT22;63185;45.642;13.764;2023-05-07T14:17:26;25.10;50.00
74657;DHT22;63185;45.642;13.764;2023-05-07T14:19:53;25.20;49.90
74657;DHT22;63185;45.642;13.764;2023-05-07T14:22:20;25.60;49.30
74657;DHT22;63185;45.642;13.764;2023-05-07T14:24:47;25.60;48.10
74657;DHT22;63185;45.642;13.764;2023-05-07T14:27:13;25.10;48.70
74657;DHT22;63185;45.642;13.764;2023-05-07T14:29:38;25.10;50.20
74657;DHT22;63185;45.642;13.764;2023-05-07T14:32:05;24.90;49.50
74657;DHT22;63185;45.642;13.764;2023-05-07T14:34:31;24.60;50.10
74657;DHT22;63185;45.642;13.764;2023-05-07T14:36:57;24.70;50.70
74657;DHT22;63185;45.642;13.764;2023-05-07T14:39:23;24.70;50.00
74657;DHT22;63185;45.642;13.764;2023-05-07T14:41:48;24.70;49.50
74657;DHT22;63185;45.642;13.764;2023-05-07T14:44:14;24.60;49.60
74657;DHT22;63185;45.642;13.764;2023-05-07T14:46:40;24.60;48.90
74657;DHT22;63185;45.642;13.764;2023-05-07T14:49:06;24.60;48.80
74657;DHT22;63185;45.642;13.764;2023-05-07T14:51:32;24.60;49.00
74657;DHT22;63185;45.642;13.764;2023-05-07T14:54:01;25.30;48.00
74657;DHT22;63185;45.642;13.764;2023-05-07T14:56:27;25.80;47.10
74657;DHT22;63185;45.642;13.764;2023-05-07T14:58:52;25.90;46.00
74657;DHT22;63185;45.642;13.764;2023-05-07T15:01:20;26.00;45.30
74657;DHT22;63185;45.642;13.764;2023-05-07T15:03:45;26.30;44.60
74657;DHT22;63185;45.642;13.764;2023-05-07T15:06:11;26.40;44.50
74657;DHT22;63185;45.642;13.764;2023-05-07T15:08:37;26.10;43.60
74657;DHT22;63185;45.642;13.764;2023-05-07T15:11:02;25.60;45.10
74657;DHT22;63185;45.642;13.764;2023-05-07T15:13:28;25.10;46.10
74657;DHT22;63185;45.642;13.764;2023-05-07T15:15:54;25.10;46.60
74657;DHT22;63185;45.642;13.764;2023-05-07T15:18:19;25.20;45.60
74657;DHT22;63185;45.642;13.764;2023-05-07T15:20:45;25.60;45.90
74657;DHT22;63185;45.642;13.764;2023-05-07T15:23:11;26.10;44.60
74657;DHT22;63185;45.642;13.764;2023-05-07T15:25:39;26.60;43.20
74657;DHT22;63185;45.642;13.764;2023-05-07T15:28:05;26.80;42.70
74657;DHT22;63185;45.642;13.764;2023-05-07T15:30:31;27.80;41.90
74657;DHT22;63185;45.642;13.764;2023-05-07T15:32:56;28.60;40.30
74657;DHT22;63185;45.642;13.764;2023-05-07T15:35:22;28.60;39.10